Time;durP1;ratioP1;P1;durP2;ratioP2;P2;SDS_P1;SDS_P2;PMS_P1;PMS_P2;Temp;Humidity;BMP_temperature;BMP_pressure;BME280_temperature;BME280_humidity;BME280_pressure;Samples;Min_cycle;Max_cycle;Signal;HPM_P1;HPM_P2
2021/01/01 00:01:43;;;;;;;349.67;177.77;;;-1.70;99.90;;;;;;5020744;28;20258;-58
2021/01/01 00:04:09;;;;;;;402.45;215.50;;;-1.70;99.90;;;;;;5038488;28;20324;-58
2021/01/01 00:06:35;;;;;;;470.50;223.60;;;-1.70;99.90;;;;;;5038004;28;20275;-59
2021/01/01 00:09:01;;;;;;;433.20;219.60;;;-1.60;99.90;;;;;;5021635;28;20276;-58
2021/01/01 00:11:27;;;;;;;452.93;207.60;;;-1.70;99.90;;;;;;5038947;28;20288;-58
2021/01/01 00:13:53;;;;;;;573.87;287.23;;;-1.70;99.90;;;;;;5039040;28;20025;-58
2021/01/01 00:16:19;;;;;;;708.40;385.80;;;-1.70;99.90;;;;;;5038941;28;20000;-65
2021/01/01 00:18:44;;;;;;;648.70;346.20;;;-1.60;99.90;;;;;;5039231;28;19909;-65
2021/01/01 00:21:10;;;;;;;664.30;343.20;;;-1.70;99.90;;;;;;5024384;28;19915;-66
2021/01/01 00:23:40;;;;;;;807.13;384.60;;;-1.70;99.90;;;;;;5018905;28;19997;-66
2021/01/01 00:26:16;;;;;;;918.77;394.03;;;-1.70;99.90;;;;;;5018601;28;20074;-66
2021/01/01 00:28:46;;;;;;;616.35;316.35;;;-1.70;99.90;;;;;;5019053;28;20249;-65
2021/01/01 00:31:27;;;;;;;564.07;304.10;;;-1.60;99.90;;;;;;5019171;28;20625;-64
2021/01/01 00:33:53;;;;;;;585.43;307.03;;;-1.50;99.90;;;;;;5034133;28;20247;-65
2021/01/01 00:36:22;;;;;;;689.65;342.65;;;-1.50;99.90;;;;;;5038341;28;20742;-66
2021/01/01 00:38:51;;;;;;;564.53;317.63;;;-1.60;99.90;;;;;;5039107;28;20369;-66
2021/01/01 00:41:35;;;;;;;739.53;372.10;;;-1.50;99.90;;;;;;5038505;28;20213;-66
2021/01/01 00:44:01;;;;;;;556.45;303.75;;;-1.50;99.90;;;;;;5038520;28;20150;-66
2021/01/01 00:46:28;;;;;;;555.17;307.13;;;-1.30;99.90;;;;;;5038473;28;20321;-66
2021/01/01 00:48:54;;;;;;;382.77;193.00;;;-1.40;99.90;;;;;;5038491;28;20262;-66
2021/01/01 00:51:32;;;;;;;332.70;144.20;;;-1.60;99.90;;;;;;5038283;28;20244;-66
2021/01/01 00:54:02;;;;;;;338.35;141.40;;;-1.80;99.90;;;;;;5038403;28;20284;-65
2021/01/01 00:56:29;;;;;;;309.40;138.43;;;-1.90;99.90;;;;;;5038276;28;20278;-66
2021/01/01 00:58:56;;;;;;;477.83;203.10;;;-1.90;99.90;;;;;;5020345;28;20303;-66
2021/01/01 01:01:24;;;;;;;348.60;160.80;;;-1.80;99.90;;;;;;5004325;28;20312;-66
2021/01/01 01:03:55;;;;;;;580.57;237.60;;;-1.80;99.90;;;;;;5037969;28;20229;-65
2021/01/01 01:06:21;;;;;;;577.67;245.80;;;-1.90;99.90;;;;;;5038078;28;20242;-66
2021/01/01 01:08:47;;;;;;;553.60;247.60;;;-1.80;99.90;;;;;;5037852;28;20249;-66
2021/01/01 01:11:14;;;;;;;631.40;265.55;;;-1.80;99.90;;;;;;5037919;28;20309;-66
2021/01/01 01:13:40;;;;;;;436.53;206.70;;;-1.80;99.90;;;;;;5038197;28;20049;-66
2021/01/01 01:16:06;;;;;;;723.85;304.60;;;-1.70;99.90;;;;;;5038006;28;20311;-66
2021/01/01 01:18:32;;;;;;;956.10;366.40;;;-1.80;99.90;;;;;;5037784;28;20063;-66
2021/01/01 01:20:58;;;;;;;705.27;304.70;;;-1.90;99.90;;;;;;5000308;28;20026;-65
2021/01/01 01:23:24;;;;;;;663.53;276.33;;;-1.70;99.90;;;;;;5018202;28;20228;-65
2021/01/01 01:25:50;;;;;;;642.00;271.80;;;-1.80;99.90;;;;;;5017896;28;19909;-65
2021/01/01 01:28:16;;;;;;;502.30;243.70;;;-1.80;99.90;;;;;;5017658;28;20250;-65
2021/01/01 01:30:42;;;;;;;567.43;282.03;;;-1.70;99.90;;;;;;5018321;28;19913;-64
2021/01/01 01:33:08;;;;;;;981.13;399.30;;;-1.60;99.90;;;;;;5017814;28;20264;-66
2021/01/01 01:35:35;;;;;;;738.93;326.83;;;-1.70;99.90;;;;;;5016214;28;20025;-67
2021/01/01 01:38:01;;;;;;;745.80;342.80;;;-1.80;99.90;;;;;;5017667;28;24103;-66
2021/01/01 01:40:27;;;;;;;752.63;336.53;;;-1.80;99.90;;;;;;5017794;28;20597;-67
2021/01/01 01:42:53;;;;;;;750.23;345.03;;;-1.70;99.90;;;;;;5017437;28;20074;-68
2021/01/01 01:45:19;;;;;;;609.70;299.20;;;-1.70;99.90;;;;;;5017844;28;19925;-66
2021/01/01 01:47:45;;;;;;;777.77;308.33;;;-1.60;99.90;;;;;;5017835;28;20258;-66
2021/01/01 01:50:12;;;;;;;600.23;273.97;;;-1.80;99.90;;;;;;5017402;28;20289;-67
2021/01/01 01:52:38;;;;;;;643.37;295.07;;;-2.00;99.90;;;;;;5018370;28;20063;-66
2021/01/01 01:55:04;;;;;;;591.30;297.35;;;-1.80;99.90;;;;;;5036908;28;20685;-66
2021/01/01 01:57:32;;;;;;;718.17;325.33;;;-1.70;99.90;;;;;;5037330;28;20416;-66
2021/01/01 02:00:04;;;;;;;600.60;286.00;;;-1.80;99.90;;;;;;5037174;28;20277;-66
2021/01/01 02:02:29;;;;;;;587.63;280.33;;;-1.80;99.90;;;;;;5037177;28;20213;-66
2021/01/01 02:04:55;;;;;;;594.50;287.20;;;-1.80;99.90;;;;;;5037051;28;20225;-67
2021/01/01 02:07:21;;;;;;;531.07;254.47;;;-1.80;99.90;;;;;;5019386;28;20052;-66
2021/01/01 02:09:47;;;;;;;894.20;345.60;;;-1.60;99.90;;;;;;5019233;28;19925;-66
2021/01/01 02:12:16;;;;;;;700.60;277.80;;;-1.70;99.90;;;;;;5037175;28;20037;-66
2021/01/01 02:14:42;;;;;;;665.50;255.40;;;-2.00;99.90;;;;;;5036953;28;20227;-66
2021/01/01 02:17:07;;;;;;;513.60;207.80;;;-2.00;99.90;;;;;;5037065;28;20311;-67
2021/01/01 02:19:33;;;;;;;617.80;227.35;;;-2.10;99.90;;;;;;5036846;28;19971;-66
2021/01/01 02:22:02;;;;;;;411.15;155.35;;;-2.10;99.90;;;;;;5019042;28;20496;-66
2021/01/01 02:24:28;;;;;;;530.57;192.20;;;-2.10;99.90;;;;;;5037006;28;20391;-66
2021/01/01 02:26:54;;;;;;;573.70;209.30;;;-2.20;99.90;;;;;;5036655;28;20308;-66
2021/01/01 02:29:20;;;;;;;493.15;176.60;;;-2.30;99.90;;;;;;5036568;28;19913;-67
2021/01/01 02:31:45;;;;;;;517.25;170.75;;;-2.20;99.90;;;;;;5036822;28;20322;-66
2021/01/01 02:34:11;;;;;;;486.75;161.05;;;-2.30;99.90;;;;;;5036910;28;20049;-65
2021/01/01 02:36:37;;;;;;;495.20;174.05;;;-2.30;99.90;;;;;;5036267;28;20104;-66
2021/01/01 02:39:04;;;;;;;428.40;146.60;;;-2.30;99.90;;;;;;5036795;28;20029;-66
2021/01/01 02:41:29;;;;;;;510.10;175.63;;;-2.30;99.90;;;;;;5036384;28;20303;-66
2021/01/01 02:43:55;;;;;;;456.83;165.63;;;-2.40;99.90;;;;;;5036298;28;20056;-66
2021/01/01 02:46:21;;;;;;;479.00;169.00;;;-2.40;99.90;;;;;;5018011;28;20108;-66
2021/01/01 02:48:46;;;;;;;477.03;155.97;;;-2.50;99.90;;;;;;5036289;28;20060;-66
2021/01/01 02:51:12;;;;;;;447.07;148.77;;;-2.50;99.90;;;;;;5036298;28;20216;-66
2021/01/01 02:53:37;;;;;;;487.17;153.53;;;-2.50;99.90;;;;;;5036020;28;19909;-66
2021/01/01 02:56:03;;;;;;;501.93;151.60;;;-2.60;99.90;;;;;;5018188;28;19909;-66
2021/01/01 02:58:29;;;;;;;446.30;143.70;;;-2.60;99.90;;;;;;5035961;28;20030;-66
2021/01/01 03:00:54;;;;;;;302.30;109.10;;;-2.50;99.90;;;;;;5036653;28;20104;-66
2021/01/01 03:03:20;;;;;;;356.20;116.70;;;-2.60;99.90;;;;;;5036263;28;20432;-66
2021/01/01 03:05:46;;;;;;;371.30;130.20;;;-2.40;99.90;;;;;;5035921;28;20368;-66
2021/01/01 03:08:12;;;;;;;422.37;140.30;;;-2.30;99.90;;;;;;5036164;28;20083;-66
2021/01/01 03:10:38;;;;;;;353.70;120.60;;;-2.50;99.90;;;;;;5036247;28;20265;-66
2021/01/01 03:13:04;;;;;;;245.15;101.80;;;-2.50;99.90;;;;;;5018673;28;20068;-66
2021/01/01 03:15:30;;;;;;;297.77;100.63;;;-2.40;99.90;;;;;;5036161;28;20025;-66
2021/01/01 03:17:56;;;;;;;341.37;118.40;;;-2.40;99.90;;;;;;5036341;28;20045;-66
2021/01/01 03:20:22;;;;;;;318.97;111.30;;;-2.40;99.90;;;;;;5043077;28;20021;-66
2021/01/01 03:22:47;;;;;;;356.30;122.20;;;-2.40;99.90;;;;;;5056224;28;20032;-65
2021/01/01 03:25:13;;;;;;;226.50;90.25;;;-2.40;99.90;;;;;;5055794;28;20059;-66
2021/01/01 03:27:39;;;;;;;385.95;112.90;;;-2.40;99.90;;;;;;5055969;28;20037;-66
2021/01/01 03:30:07;;;;;;;260.93;94.80;;;-2.70;99.90;;;;;;5055255;28;20368;-66
2021/01/01 03:32:33;;;;;;;338.80;102.30;;;-2.60;99.90;;;;;;5055133;28;19970;-66
2021/01/01 03:34:59;;;;;;;295.50;103.93;;;-2.50;99.90;;;;;;5055841;28;20447;-66
2021/01/01 03:37:25;;;;;;;241.80;95.15;;;-2.50;99.90;;;;;;5055533;28;20362;-66
2021/01/01 03:39:51;;;;;;;410.90;128.90;;;-2.40;99.90;;;;;;5055943;28;19978;-66
2021/01/01 03:42:17;;;;;;;249.53;96.53;;;-2.50;99.90;;;;;;5037965;28;20701;-66
2021/01/01 03:44:43;;;;;;;265.63;101.50;;;-2.60;99.90;;;;;;5038192;28;19908;-66
2021/01/01 03:47:08;;;;;;;384.57;120.87;;;-2.40;99.90;;;;;;5055795;28;20068;-66
2021/01/01 03:49:34;;;;;;;399.75;131.50;;;-2.50;99.90;;;;;;5038520;28;20033;-66
2021/01/01 03:52:00;;;;;;;264.00;98.50;;;-2.60;99.90;;;;;;5055838;28;20036;-66
2021/01/01 03:54:26;;;;;;;408.00;134.60;;;-2.50;99.90;;;;;;5056000;28;20135;-66
2021/01/01 03:56:52;;;;;;;323.37;109.50;;;-2.50;99.90;;;;;;5037770;28;20025;-66
2021/01/01 03:59:18;;;;;;;369.30;124.50;;;-2.60;99.90;;;;;;5058965;28;19909;-66
2021/01/01 04:01:44;;;;;;;432.80;146.07;;;-2.70;99.90;;;;;;5059756;28;20029;-65
2021/01/01 04:04:09;;;;;;;419.07;137.97;;;-2.70;99.90;;;;;;5059265;28;20227;-66
2021/01/01 04:06:35;;;;;;;357.87;127.73;;;-2.70;99.90;;;;;;5058978;28;20039;-66
2021/01/01 04:09:01;;;;;;;363.90;132.30;;;-2.60;99.90;;;;;;5058524;28;20088;-66
2021/01/01 04:11:26;;;;;;;207.70;93.85;;;-2.50;99.90;;;;;;5041480;28;20054;-65
2021/01/01 04:13:52;;;;;;;296.45;115.45;;;-2.50;99.90;;;;;;5040901;28;20056;-66
2021/01/01 04:16:18;;;;;;;359.93;126.47;;;-2.30;99.90;;;;;;5058939;28;20033;-67
2021/01/01 04:18:43;;;;;;;267.23;105.90;;;-2.40;99.90;;;;;;5059133;28;20033;-66
2021/01/01 04:21:09;;;;;;;338.97;124.03;;;-2.50;99.90;;;;;;5045087;28;20040;-66
2021/01/01 04:23:35;;;;;;;373.27;132.43;;;-2.60;99.90;;;;;;5039333;28;20480;-66
2021/01/01 04:26:01;;;;;;;308.60;116.80;;;-2.60;99.90;;;;;;5020820;28;19944;-66
2021/01/01 04:28:27;;;;;;;287.63;109.33;;;-2.60;99.90;;;;;;5038782;28;20208;-66
2021/01/01 04:30:52;;;;;;;301.33;115.93;;;-2.50;99.90;;;;;;5038987;28;20049;-66
2021/01/01 04:33:18;;;;;;;275.70;98.80;;;-2.60;99.90;;;;;;5038499;28;20026;-66
2021/01/01 04:35:44;;;;;;;279.35;106.00;;;-2.50;99.90;;;;;;5038547;28;20060;-66
2021/01/01 04:38:10;;;;;;;251.77;103.33;;;-2.60;99.90;;;;;;5038797;28;19909;-66
2021/01/01 04:40:35;;;;;;;228.87;88.53;;;-2.60;99.90;;;;;;5038980;28;20033;-66
2021/01/01 04:43:01;;;;;;;211.07;89.30;;;-2.70;99.90;;;;;;5021965;28;19913;-66
2021/01/01 04:45:27;;;;;;;168.53;79.40;;;-2.70;99.90;;;;;;5018244;28;20046;-66
2021/01/01 04:47:53;;;;;;;206.67;80.67;;;-2.80;99.90;;;;;;5018283;28;20441;-66
2021/01/01 04:50:19;;;;;;;245.83;88.90;;;-2.80;99.90;;;;;;5018498;28;20233;-66
2021/01/01 04:52:49;;;;;;;254.20;91.40;;;-2.80;99.90;;;;;;5018381;28;20051;-66
2021/01/01 04:55:16;;;;;;;169.05;74.90;;;-2.80;99.90;;;;;;5025093;28;20164;-65
2021/01/01 04:57:42;;;;;;;179.30;80.87;;;-2.90;99.90;;;;;;5039049;28;20061;-64
2021/01/01 05:00:09;;;;;;;179.60;77.10;;;-2.90;99.90;;;;;;5038619;28;20038;-65
2021/01/01 05:02:34;;;;;;;188.60;77.25;;;-2.80;99.90;;;;;;5038495;28;20059;-65
2021/01/01 05:05:00;;;;;;;177.80;83.70;;;-2.80;99.90;;;;;;5038451;28;20100;-65
2021/01/01 05:07:27;;;;;;;212.67;82.90;;;-2.80;99.90;;;;;;5038016;28;20037;-65
2021/01/01 05:09:53;;;;;;;170.93;79.23;;;-2.80;99.90;;;;;;5037073;28;20436;-65
2021/01/01 05:12:19;;;;;;;193.45;84.80;;;-2.60;99.90;;;;;;5038409;28;20224;-65
2021/01/01 05:14:44;;;;;;;163.90;80.10;;;-2.60;99.90;;;;;;5038027;28;20058;-65
2021/01/01 05:17:10;;;;;;;163.70;75.10;;;-2.50;99.90;;;;;;5038996;28;20047;-66
2021/01/01 05:19:36;;;;;;;179.40;85.70;;;-2.40;99.90;;;;;;5038671;28;20112;-66
2021/01/01 05:22:07;;;;;;;173.10;80.60;;;-2.40;99.90;;;;;;5037961;28;20485;-65
2021/01/01 05:24:44;;;;;;;144.60;70.53;;;-2.30;99.90;;;;;;5038224;28;19905;-66
2021/01/01 05:27:17;;;;;;;159.37;78.27;;;-2.20;99.90;;;;;;5038072;28;20058;-58
2021/01/01 05:29:49;;;;;;;138.60;71.90;;;-2.20;99.90;;;;;;5037983;28;20240;-58
2021/01/01 05:32:24;;;;;;;135.95;73.85;;;-2.20;99.90;;;;;;5037800;28;20060;-58
2021/01/01 05:34:50;;;;;;;150.30;75.40;;;-2.00;99.90;;;;;;5037837;28;20394;-58
2021/01/01 05:37:49;;;;;;;155.75;78.55;;;-2.00;99.90;;;;;;5037655;28;20124;-58
2021/01/01 05:40:17;;;;;;;137.97;69.90;;;-2.10;99.90;;;;;;4971626;28;20243;-58
2021/01/01 05:42:43;;;;;;;142.15;69.20;;;-2.10;99.90;;;;;;5037795;28;20078;-58
2021/01/01 05:45:25;;;;;;;144.90;73.50;;;-2.00;99.90;;;;;;5037414;28;20616;-58
2021/01/01 05:48:07;;;;;;;143.65;69.55;;;-2.00;99.90;;;;;;5037576;28;20417;-58
2021/01/01 05:50:34;;;;;;;137.10;71.75;;;-2.00;99.90;;;;;;5037421;28;20572;-58
2021/01/01 05:53:09;;;;;;;133.45;64.15;;;-1.90;99.90;;;;;;5037363;28;20254;-58
2021/01/01 05:55:34;;;;;;;126.53;62.70;;;-1.90;99.90;;;;;;5037490;28;20263;-59
2021/01/01 05:58:00;;;;;;;114.00;59.10;;;-1.90;99.90;;;;;;5037164;28;20063;-58
2021/01/01 06:00:26;;;;;;;106.90;59.20;;;-1.80;99.90;;;;;;5036999;28;20148;-58
2021/01/01 06:02:56;;;;;;;106.15;55.00;;;-1.80;99.90;;;;;;5002944;28;20060;-58
2021/01/01 06:05:27;;;;;;;109.35;53.15;;;-1.80;99.90;;;;;;5019806;28;20242;-58
2021/01/01 06:07:57;;;;;;;105.60;52.07;;;-1.80;99.90;;;;;;5019516;28;20112;-58
2021/01/01 06:10:26;;;;;;;102.23;51.90;;;-1.80;99.90;;;;;;5036917;28;20260;-58
2021/01/01 06:12:54;;;;;;;102.80;51.20;;;-1.90;99.90;;;;;;5019183;28;20058;-57
2021/01/01 06:15:22;;;;;;;98.47;48.80;;;-1.80;99.90;;;;;;5019243;28;20250;-58
2021/01/01 06:17:52;;;;;;;97.65;53.25;;;-1.70;99.90;;;;;;5037007;28;20220;-57
2021/01/01 06:20:22;;;;;;;99.40;50.85;;;-1.70;99.90;;;;;;5036625;28;20246;-58
2021/01/01 06:23:06;;;;;;;92.00;49.50;;;-1.60;99.90;;;;;;5037011;28;20250;-57
2021/01/01 06:25:33;;;;;;;;;;;-1.70;99.90;;;;;;5037532;28;20250;-57
2021/01/01 06:27:58;;;;;;;105.70;51.45;;;-1.60;99.90;;;;;;5036845;28;19904;-58
2021/01/01 06:30:25;;;;;;;99.70;52.55;;;-1.60;99.90;;;;;;5036786;28;20344;-57
2021/01/01 06:32:52;;;;;;;113.70;57.50;;;-1.70;99.90;;;;;;5037049;28;20076;-58
2021/01/01 06:35:22;;;;;;;111.73;58.50;;;-1.60;99.90;;;;;;5036882;28;20326;-57
2021/01/01 06:37:53;;;;;;;100.20;53.30;;;-1.60;99.90;;;;;;5036589;28;20040;-58
2021/01/01 06:40:21;;;;;;;109.27;57.27;;;-1.60;99.90;;;;;;5036488;28;20602;-58
2021/01/01 06:43:01;;;;;;;110.57;58.10;;;-1.50;99.90;;;;;;5036945;28;20221;-57
2021/01/01 06:45:46;;;;;;;105.95;53.50;;;-1.40;99.90;;;;;;5036742;28;20248;-57
2021/01/01 06:48:21;;;;;;;108.07;53.23;;;-1.40;99.90;;;;;;5036723;28;20309;-58
2021/01/01 06:50:51;;;;;;;104.90;52.97;;;-1.30;99.90;;;;;;5036588;28;20348;-57
2021/01/01 06:53:19;;;;;;;107.27;55.63;;;-1.10;99.90;;;;;;5018855;28;20278;-57
2021/01/01 06:55:47;;;;;;;94.43;53.20;;;-1.10;99.90;;;;;;5036207;28;20286;-57
2021/01/01 06:58:15;;;;;;;98.30;53.20;;;-1.00;99.90;;;;;;5036368;28;20449;-57
2021/01/01 07:00:50;;;;;;;95.90;52.37;;;-1.00;99.90;;;;;;5035857;28;20394;-57
2021/01/01 07:03:34;;;;;;;92.90;49.90;;;-1.10;99.90;;;;;;5034740;28;20305;-57
2021/01/01 07:06:02;;;;;;;96.23;51.87;;;-1.10;99.90;;;;;;5036501;28;20396;-57
2021/01/01 07:08:40;;;;;;;93.53;48.17;;;-1.00;99.90;;;;;;5036396;28;20051;-58
2021/01/01 07:11:28;;;;;;;89.70;48.10;;;-0.90;99.90;;;;;;5036371;28;20458;-58
2021/01/01 07:13:56;;;;;;;104.07;52.73;;;-0.80;99.90;;;;;;5036005;28;20255;-58
2021/01/01 07:16:23;;;;;;;96.23;52.37;;;-0.80;99.90;;;;;;5035800;28;20228;-58
2021/01/01 07:18:50;;;;;;;104.55;54.25;;;-0.80;99.90;;;;;;5036322;28;20053;-57
2021/01/01 07:21:18;;;;;;;97.70;50.47;;;-0.70;99.90;;;;;;5021000;28;20224;-58
2021/01/01 07:23:44;;;;;;;100.17;52.13;;;-0.80;99.90;;;;;;5016663;28;20213;-57
2021/01/01 07:26:11;;;;;;;92.03;51.10;;;-0.80;99.90;;;;;;5016290;28;20289;-58
2021/01/01 07:28:41;;;;;;;93.27;51.03;;;-0.70;99.90;;;;;;5016250;28;20221;-58
2021/01/01 07:31:07;;;;;;;94.20;48.90;;;-0.80;99.90;;;;;;5016374;28;20260;-57
2021/01/01 07:33:34;;;;;;;93.67;48.63;;;-0.70;99.90;;;;;;5018671;28;20097;-58
2021/01/01 07:36:02;;;;;;;83.80;48.60;;;-0.70;99.90;;;;;;5020645;28;20655;-58
2021/01/01 07:38:30;;;;;;;93.73;49.93;;;-0.60;99.90;;;;;;5019942;28;20259;-58
2021/01/01 07:40:56;;;;;;;93.90;48.15;;;-0.60;99.90;;;;;;5020260;28;20320;-58
2021/01/01 07:43:22;;;;;;;92.53;49.27;;;-0.60;99.90;;;;;;5019828;28;20246;-58
2021/01/01 07:45:48;;;;;;;87.90;48.87;;;-0.60;99.90;;;;;;5019557;28;20679;-58
2021/01/01 07:48:15;;;;;;;90.37;48.23;;;-0.50;99.90;;;;;;5019966;28;20057;-58
2021/01/01 07:50:41;;;;;;;79.33;45.90;;;-0.60;99.90;;;;;;5038161;28;20716;-58
2021/01/01 07:53:11;;;;;;;76.70;44.47;;;-0.50;99.90;;;;;;5039638;28;20352;-58
2021/01/01 07:55:39;;;;;;;82.50;46.00;;;-0.60;99.90;;;;;;5039379;28;20339;-58
2021/01/01 07:58:07;;;;;;;83.17;47.30;;;-0.50;99.90;;;;;;5021707;28;20213;-58
2021/01/01 08:00:34;;;;;;;82.47;46.97;;;-0.60;99.90;;;;;;5021976;28;20224;-58
2021/01/01 08:03:01;;;;;;;81.67;46.43;;;-0.50;99.90;;;;;;5039308;28;20546;-58
2021/01/01 08:05:27;;;;;;;76.10;43.30;;;-0.50;99.90;;;;;;5039330;28;20209;-58
2021/01/01 08:07:53;;;;;;;73.80;43.07;;;-0.50;99.90;;;;;;5039204;28;20278;-58
2021/01/01 08:10:40;;;;;;;80.53;42.23;;;-0.40;99.90;;;;;;5039311;28;20343;-57
2021/01/01 08:13:22;;;;;;;71.70;38.30;;;-0.40;99.90;;;;;;5038826;28;20108;-59
2021/01/01 08:15:49;;;;;;;73.43;39.60;;;-0.40;99.90;;;;;;5039434;28;20287;-58
2021/01/01 08:18:19;;;;;;;73.27;38.30;;;-0.40;99.90;;;;;;5039069;28;20209;-57
2021/01/01 08:20:55;;;;;;;66.03;39.33;;;-0.40;99.90;;;;;;5039071;28;20221;-58
2021/01/01 08:23:21;;;;;;;71.10;38.07;;;-0.40;99.90;;;;;;5038828;28;20058;-58
2021/01/01 08:25:47;;;;;;;64.13;38.13;;;-0.40;99.90;;;;;;5038980;28;20307;-58
2021/01/01 08:28:21;;;;;;;71.73;41.13;;;-0.40;99.90;;;;;;5038812;28;20402;-58
2021/01/01 08:31:05;;;;;;;72.07;40.80;;;-0.40;99.90;;;;;;5038976;28;20361;-58
2021/01/01 08:33:36;;;;;;;71.10;40.30;;;-0.30;99.90;;;;;;5020924;28;20263;-58
2021/01/01 08:36:04;;;;;;;72.23;40.97;;;-0.30;99.90;;;;;;5037632;28;20026;-58
2021/01/01 08:38:30;;;;;;;67.55;38.05;;;-0.20;99.90;;;;;;5038997;28;20208;-58
2021/01/01 08:40:58;;;;;;;70.27;38.90;;;-0.20;99.90;;;;;;5038750;28;20481;-58
2021/01/01 08:43:25;;;;;;;72.00;39.67;;;-0.20;99.90;;;;;;5020705;28;20383;-58
2021/01/01 08:45:51;;;;;;;76.80;39.20;;;-0.20;99.90;;;;;;5038405;28;20283;-58
2021/01/01 08:48:17;;;;;;;68.13;40.90;;;-0.20;99.90;;;;;;5038408;28;20435;-58
2021/01/01 08:50:51;;;;;;;76.17;38.63;;;-0.10;99.90;;;;;;5038491;28;20033;-58
2021/01/01 08:53:17;;;;;;;;;;;-0.10;99.90;;;;;;5038851;28;20250;-58
2021/01/01 08:55:43;;;;;;;62.20;34.70;;;0.00;99.90;;;;;;5038695;28;20215;-58
2021/01/01 08:58:17;;;;;;;67.37;35.97;;;0.10;99.90;;;;;;5038182;28;20257;-58
2021/01/01 09:00:44;;;;;;;68.45;37.15;;;0.10;99.90;;;;;;5038477;28;20032;-58
2021/01/01 09:03:11;;;;;;;81.53;42.80;;;0.10;99.90;;;;;;5038415;28;20087;-58
2021/01/01 09:05:37;;;;;;;74.80;40.53;;;0.20;99.90;;;;;;5038102;28;20053;-58
2021/01/01 09:08:12;;;;;;;70.63;38.73;;;0.20;99.90;;;;;;5038044;28;20488;-58
2021/01/01 09:10:42;;;;;;;71.50;36.47;;;0.30;99.90;;;;;;5038044;28;20115;-58
2021/01/01 09:13:25;;;;;;;68.87;37.03;;;0.20;99.90;;;;;;5020876;28;20221;-59
2021/01/01 09:16:02;;;;;;;66.90;38.65;;;0.20;99.90;;;;;;5020195;28;20325;-58
2021/01/01 09:18:28;;;;;;;67.47;39.07;;;0.20;99.90;;;;;;5020085;28;20650;-59
2021/01/01 09:21:11;;;;;;;67.20;36.63;;;0.20;99.90;;;;;;5037572;28;20039;-59
2021/01/01 09:23:37;;;;;;;62.27;36.53;;;0.20;99.90;;;;;;5038371;28;20369;-59
2021/01/01 09:26:03;;;;;;;69.00;36.90;;;0.20;99.90;;;;;;5037860;28;20056;-58
2021/01/01 09:28:30;;;;;;;65.97;38.60;;;0.30;99.90;;;;;;5038042;28;20059;-59
2021/01/01 09:30:55;;;;;;;60.00;35.33;;;0.40;99.90;;;;;;5037914;28;20458;-59
2021/01/01 09:33:21;;;;;;;70.00;35.75;;;0.30;99.90;;;;;;5020183;28;19999;-59
2021/01/01 09:35:47;;;;;;;63.73;37.80;;;0.30;99.90;;;;;;5037453;28;20025;-59
2021/01/01 09:38:12;;;;;;;59.47;34.90;;;0.40;99.90;;;;;;5019919;28;20030;-59
2021/01/01 09:40:38;;;;;;;50.57;31.93;;;0.40;99.90;;;;;;5037562;28;20061;-59
2021/01/01 09:43:05;;;;;;;63.87;37.53;;;0.50;99.90;;;;;;5019695;28;20301;-59
2021/01/01 09:45:31;;;;;;;55.37;33.97;;;0.50;99.90;;;;;;5037370;28;20321;-59
2021/01/01 09:47:57;;;;;;;59.17;33.73;;;0.60;99.90;;;;;;5019430;28;20051;-59
2021/01/01 09:50:23;;;;;;;58.93;34.53;;;0.70;99.90;;;;;;5037299;28;20244;-59
2021/01/01 09:52:48;;;;;;;65.80;37.67;;;0.70;99.90;;;;;;5019349;28;19916;-59
2021/01/01 09:55:14;;;;;;;64.63;34.70;;;0.60;99.90;;;;;;5019114;28;19963;-59
2021/01/01 09:57:40;;;;;;;64.83;35.53;;;0.60;99.90;;;;;;5037366;28;20075;-59
2021/01/01 10:00:11;;;;;;;58.60;33.13;;;0.60;99.90;;;;;;5034672;28;20029;-59
2021/01/01 10:02:37;;;;;;;58.80;36.90;;;0.70;99.90;;;;;;5012829;28;20144;-59
2021/01/01 10:05:04;;;;;;;63.63;35.80;;;0.70;99.90;;;;;;5037005;28;20042;-59
2021/01/01 10:07:30;;;;;;;72.23;39.57;;;0.70;99.90;;;;;;5037167;28;20463;-59
2021/01/01 10:09:56;;;;;;;70.03;36.50;;;0.90;99.90;;;;;;5036485;28;20111;-59
2021/01/01 10:12:23;;;;;;;60.37;36.03;;;0.70;99.90;;;;;;5037204;28;20455;-59
2021/01/01 10:14:53;;;;;;;64.93;37.20;;;0.70;99.90;;;;;;5036520;28;20083;-59
2021/01/01 10:17:20;;;;;;;70.20;38.70;;;0.80;99.90;;;;;;5036539;28;20434;-60
2021/01/01 10:19:45;;;;;;;66.43;41.53;;;0.90;99.90;;;;;;5019185;28;20351;-59
2021/01/01 10:22:11;;;;;;;64.45;36.85;;;1.10;99.90;;;;;;5019123;28;20057;-59
2021/01/01 10:24:37;;;;;;;70.30;38.10;;;1.10;99.90;;;;;;5037106;28;19909;-60
2021/01/01 10:27:02;;;;;;;68.40;40.77;;;1.10;99.90;;;;;;5036318;28;19916;-60
2021/01/01 10:29:28;;;;;;;69.70;37.50;;;1.20;99.90;;;;;;5037069;28;19913;-60
2021/01/01 10:31:53;;;;;;;63.80;37.23;;;1.20;99.90;;;;;;5018882;28;20107;-59
2021/01/01 10:34:20;;;;;;;65.13;36.10;;;1.20;99.90;;;;;;5036338;28;19909;-59
2021/01/01 10:36:45;;;;;;;57.83;33.47;;;1.20;99.90;;;;;;5019150;28;19909;-60
2021/01/01 10:39:11;;;;;;;64.23;35.00;;;1.30;99.90;;;;;;5036164;28;20057;-59
2021/01/01 10:41:38;;;;;;;58.87;36.30;;;1.40;99.90;;;;;;5036222;28;19916;-60
2021/01/01 10:44:04;;;;;;;57.77;35.87;;;1.40;99.90;;;;;;5036148;28;20424;-60
2021/01/01 10:46:30;;;;;;;72.23;40.17;;;1.50;99.90;;;;;;5036122;28;20254;-59
2021/01/01 10:48:55;;;;;;;61.95;36.90;;;1.60;99.90;;;;;;5036226;28;20254;-59
2021/01/01 10:51:24;;;;;;;69.40;39.20;;;1.60;99.90;;;;;;5035944;28;20366;-60
2021/01/01 10:53:50;;;;;;;70.53;41.03;;;1.70;99.90;;;;;;5035834;28;20029;-59
2021/01/01 10:56:21;;;;;;;64.87;37.20;;;1.60;99.90;;;;;;5036300;28;20635;-59
2021/01/01 10:58:47;;;;;;;64.90;39.77;;;1.60;99.90;;;;;;5036515;28;20124;-57
2021/01/01 11:01:12;;;;;;;75.43;42.73;;;1.70;99.90;;;;;;5036042;28;20354;-57
2021/01/01 11:03:38;;;;;;;68.37;40.80;;;1.70;99.90;;;;;;5036280;28;20038;-58
2021/01/01 11:06:04;;;;;;;60.60;37.70;;;1.90;99.90;;;;;;5036468;28;20030;-58
2021/01/01 11:08:29;;;;;;;63.37;37.23;;;1.90;99.90;;;;;;5017852;28;20033;-64
2021/01/01 11:10:55;;;;;;;66.83;40.57;;;1.90;99.90;;;;;;5036015;28;20050;-64
2021/01/01 11:13:21;;;;;;;62.17;38.07;;;1.90;99.90;;;;;;5018421;28;20025;-64
2021/01/01 12:22:55;;;;;;;57.00;32.67;;;3.00;99.90;;;;;;5002542;28;20033;-66
2021/01/01 12:24:53;;;;;;;48.70;29.75;;;3.00;99.90;;;;;;5015817;28;20431;-65
2021/01/01 12:27:29;;;;;;;48.20;31.25;;;3.10;99.90;;;;;;5016504;28;19928;-66
2021/01/01 12:29:55;;;;;;;45.23;29.13;;;3.20;99.90;;;;;;5019803;28;20037;-66
2021/01/01 12:32:21;;;;;;;48.83;31.47;;;3.30;99.90;;;;;;5038431;28;20831;-66
2021/01/01 12:34:48;;;;;;;55.63;31.60;;;3.30;99.90;;;;;;5039117;28;20030;-67
2021/01/01 12:37:14;;;;;;;48.57;29.50;;;3.50;99.90;;;;;;5020866;28;20036;-66
2021/01/01 12:39:40;;;;;;;44.67;26.43;;;3.50;99.90;;;;;;5038756;28;20355;-66
2021/01/01 12:42:06;;;;;;;45.63;29.33;;;3.60;99.90;;;;;;5036186;28;20036;-66
2021/01/01 12:44:32;;;;;;;44.43;29.03;;;3.70;99.90;;;;;;5038533;28;20436;-66
2021/01/01 12:47:02;;;;;;;45.30;27.17;;;3.60;99.90;;;;;;5020155;28;20083;-66
2021/01/01 12:49:28;;;;;;;39.87;23.10;;;3.80;99.90;;;;;;5020807;28;20316;-67
2021/01/01 12:51:54;;;;;;;34.30;22.67;;;3.80;99.90;;;;;;5038325;28;20033;-66
2021/01/01 12:54:19;;;;;;;31.13;18.60;;;3.90;99.90;;;;;;5038082;28;20029;-68
2021/01/01 12:56:45;;;;;;;25.63;16.00;;;3.90;99.90;;;;;;5038155;28;20035;-67
2021/01/01 12:59:11;;;;;;;21.93;14.83;;;3.80;99.90;;;;;;5038231;28;20308;-67
2021/01/01 13:01:37;;;;;;;24.47;14.47;;;3.80;99.90;;;;;;5038188;28;20023;-67
2021/01/01 13:04:03;;;;;;;24.20;15.13;;;4.00;99.90;;;;;;5038197;28;19963;-67
2021/01/01 13:06:29;;;;;;;23.30;14.37;;;4.00;99.90;;;;;;5038087;28;20021;-67
2021/01/01 13:08:57;;;;;;;24.90;14.87;;;4.00;99.90;;;;;;5038129;28;20032;-68
2021/01/01 13:11:26;;;;;;;21.57;14.17;;;4.00;99.90;;;;;;5020890;28;20057;-66
2021/01/01 13:13:52;;;;;;;19.20;11.97;;;4.10;99.90;;;;;;5038197;28;20043;-66
2021/01/01 13:16:21;;;;;;;18.87;12.90;;;4.10;99.90;;;;;;5038168;28;20029;-66
2021/01/01 13:18:47;;;;;;;22.10;15.00;;;4.10;99.90;;;;;;5019791;28;20282;-67
2021/01/01 13:21:13;;;;;;;26.87;17.97;;;4.10;99.90;;;;;;5037672;28;20032;-67
2021/01/01 13:23:39;;;;;;;41.00;22.73;;;4.10;99.90;;;;;;5038560;28;20117;-67
2021/01/01 13:26:05;;;;;;;32.17;21.43;;;4.10;99.90;;;;;;5020136;28;20083;-66
2021/01/01 13:28:30;;;;;;;31.33;20.20;;;4.20;99.90;;;;;;5020545;28;20037;-66
2021/01/01 13:30:56;;;;;;;25.07;15.83;;;4.30;99.90;;;;;;5037253;28;20120;-66